Terminal Aerodrome Forecast
Issued by NWS Greer, SC

Home | Current Version | Previous Version | Text Only | Print | Product List | Glossary On
Versions: 1 2 3 4 5 6 7 8 9 10 11 12 13 14 15 16 17 18 19 20 21
000
FTUS42 KGSP 061734
TAFGSP
TAF
KGSP 061734Z 0618/0718 04009KT 5SM -RA BR OVC007
      TEMPO 0618/0620 2SM -RA BR SCT007 OVC011
     FM062000 02004KT 6SM BR SCT008 BKN012
     FM070100 27003KT 4SM BR BKN008
     FM070400 29003KT 1/2SM FG OVC003
     FM071300 03004KT P6SM SCT020=

USA.gov is the U.S. government's official web portal to all federal, state and local government web resources and services.